Time;durP1;ratioP1;P1;durP2;ratioP2;P2;SDS_P1;SDS_P2;PMS_P1;PMS_P2;Temp;Humidity;BMP_temperature;BMP_pressure;BME280_temperature;BME280_humidity;BME280_pressure;Samples;Min_cycle;Max_cycle;Signal;HPM_P1;HPM_P2
2022/02/26 00:01:11;;;;;;;27.20;4.00;;;;;;;;;;5041663;28;20667;-67
2022/02/26 00:03:37;;;;;;;18.80;3.73;;;;;;;;;;5047974;28;20481;-67
2022/02/26 00:06:02;;;;;;;30.50;3.77;;;;;;;;;;5045659;28;20186;-67
2022/02/26 00:08:28;;;;;;;20.93;3.37;;;;;;;;;;5045938;28;20681;-67
2022/02/26 00:10:53;;;;;;;26.07;3.37;;;;;;;;;;5045532;28;20223;-67
2022/02/26 00:13:18;;;;;;;20.23;3.40;;;;;;;;;;5042367;28;20704;-66
2022/02/26 00:15:44;;;;;;;25.07;3.57;;;;;;;;;;5044966;28;20213;-66
2022/02/26 00:18:09;;;;;;;28.10;3.07;;;;;;;;;;5046070;28;20663;-66
2022/02/26 00:20:35;;;;;;;22.53;3.53;;;;;;;;;;5045540;28;20243;-67
2022/02/26 00:23:00;;;;;;;26.57;3.13;;;;;;;;;;5044629;28;20746;-67
2022/02/26 00:25:26;;;;;;;24.67;3.83;;;;;;;;;;5039762;28;20184;-67
2022/02/26 00:27:51;;;;;;;22.17;3.23;;;;;;;;;;5047347;28;20181;-67
2022/02/26 00:30:17;;;;;;;26.73;3.10;;;;;;;;;;5042437;28;20205;-67
2022/02/26 00:32:42;;;;;;;17.80;3.77;;;;;;;;;;5043960;28;20177;-68
2022/02/26 00:35:07;;;;;;;18.87;2.37;;;;;;;;;;5046194;28;20208;-67
2022/02/26 00:37:33;;;;;;;23.27;2.77;;;;;;;;;;5048269;28;20181;-67
2022/02/26 00:39:58;;;;;;;24.03;3.33;;;;;;;;;;5043437;28;20192;-66
2022/02/26 00:42:23;;;;;;;34.97;3.50;;;;;;;;;;5040311;28;20564;-67
2022/02/26 00:44:49;;;;;;;23.77;3.07;;;;;;;;;;5040773;28;20181;-67
2022/02/26 00:47:14;;;;;;;26.23;3.37;;;;;;;;;;5039028;28;20213;-67
2022/02/26 00:49:49;;;;;;;29.83;3.33;;;;;;;;;;5043544;28;20181;-67
2022/02/26 00:52:17;;;;;;;26.80;2.93;;;;;;;;;;5047686;28;20204;-67
2022/02/26 00:54:43;;;;;;;22.30;3.43;;;;;;;;;;5044032;28;20301;-67
2022/02/26 00:57:09;;;;;;;36.63;3.63;;;;;;;;;;5042096;28;20182;-67
2022/02/26 00:59:34;;;;;;;25.90;3.50;;;;;;;;;;5041349;28;20188;-66
2022/02/26 01:02:00;;;;;;;26.17;3.23;;;;;;;;;;5045268;28;20186;-66
2022/02/26 01:04:25;;;;;;;27.67;3.30;;;;;;;;;;5048374;28;20649;-67
2022/02/26 01:06:52;;;;;;;25.27;3.43;;;;;;;;;;5044195;28;20189;-67
2022/02/26 01:09:17;;;;;;;28.63;3.60;;;;;;;;;;5042135;28;20189;-67
2022/02/26 01:11:43;;;;;;;27.97;3.40;;;;;;;;;;5047521;28;20196;-67
2022/02/26 01:14:08;;;;;;;25.37;3.20;;;;;;;;;;5037996;28;20234;-67
2022/02/26 01:16:34;;;;;;;26.57;3.30;;;;;;;;;;5046008;28;20236;-67
2022/02/26 01:19:00;;;;;;;25.70;3.33;;;;;;;;;;5041611;28;20291;-67
2022/02/26 01:21:26;;;;;;;31.67;3.57;;;;;;;;;;5043933;28;20637;-67
2022/02/26 01:23:52;;;;;;;27.70;3.47;;;;;;;;;;5044052;28;20197;-67
2022/02/26 01:26:19;;;;;;;24.50;3.33;;;;;;;;;;5039265;28;20593;-67
2022/02/26 01:28:45;;;;;;;19.73;2.73;;;;;;;;;;5044613;28;20302;-67
2022/02/26 01:31:10;;;;;;;27.27;2.90;;;;;;;;;;5044214;28;20193;-67
2022/02/26 01:33:36;;;;;;;21.27;3.57;;;;;;;;;;5036680;28;20303;-66
2022/02/26 01:36:02;;;;;;;24.00;3.27;;;;;;;;;;5045598;28;20205;-66
2022/02/26 01:38:28;;;;;;;35.63;3.60;;;;;;;;;;5046195;28;20260;-67
2022/02/26 01:40:53;;;;;;;34.47;4.47;;;;;;;;;;5045038;28;20606;-68
2022/02/26 01:43:18;;;;;;;19.03;2.97;;;;;;;;;;5042190;28;20209;-67
2022/02/26 01:45:44;;;;;;;29.13;3.57;;;;;;;;;;5043239;28;20181;-67
2022/02/26 01:48:09;;;;;;;26.20;3.83;;;;;;;;;;5049221;28;20553;-67
2022/02/26 01:50:35;;;;;;;22.73;3.60;;;;;;;;;;5044121;28;20185;-67
2022/02/26 01:53:01;;;;;;;24.97;3.30;;;;;;;;;;5041885;28;20257;-67
2022/02/26 01:55:26;;;;;;;18.63;2.93;;;;;;;;;;5043679;28;20233;-67
2022/02/26 01:57:52;;;;;;;27.20;3.43;;;;;;;;;;5037932;28;20220;-67
2022/02/26 02:00:18;;;;;;;21.97;3.50;;;;;;;;;;5043577;28;20261;-65
2022/02/26 02:02:44;;;;;;;26.77;3.07;;;;;;;;;;5039247;28;20587;-69
2022/02/26 02:05:10;;;;;;;31.30;3.70;;;;;;;;;;5041262;28;20243;-66
2022/02/26 02:07:36;;;;;;;27.67;3.30;;;;;;;;;;5042908;28;20186;-66
2022/02/26 02:10:02;;;;;;;31.17;4.10;;;;;;;;;;5042649;28;20185;-66
2022/02/26 02:12:28;;;;;;;20.90;3.83;;;;;;;;;;5048375;28;20291;-67
2022/02/26 02:14:53;;;;;;;29.03;4.00;;;;;;;;;;5042931;28;20249;-67
2022/02/26 02:17:21;;;;;;;18.87;3.13;;;;;;;;;;5045058;28;20633;-66
2022/02/26 02:19:47;;;;;;;20.37;3.20;;;;;;;;;;5040920;28;20695;-66
2022/02/26 02:22:15;;;;;;;16.30;3.17;;;;;;;;;;5044890;28;20221;-66
2022/02/26 02:24:41;;;;;;;29.60;5.27;;;;;;;;;;5043192;28;20263;-66
2022/02/26 02:27:06;;;;;;;21.33;2.60;;;;;;;;;;5046751;28;20178;-66
2022/02/26 02:29:32;;;;;;;27.60;3.17;;;;;;;;;;5042287;28;20196;-66
2022/02/26 02:31:58;;;;;;;20.47;3.80;;;;;;;;;;5045672;28;20613;-66
2022/02/26 02:34:23;;;;;;;21.73;3.40;;;;;;;;;;5040944;28;20201;-66
2022/02/26 02:36:49;;;;;;;20.60;3.30;;;;;;;;;;5048024;28;20526;-66
2022/02/26 02:39:14;;;;;;;20.50;2.97;;;;;;;;;;5042325;28;20189;-65
2022/02/26 02:41:41;;;;;;;25.33;2.77;;;;;;;;;;5047138;28;20563;-65
2022/02/26 02:44:07;;;;;;;19.13;2.60;;;;;;;;;;5042203;28;20193;-66
2022/02/26 02:46:32;;;;;;;14.70;2.53;;;;;;;;;;5045964;28;20188;-67
2022/02/26 02:48:58;;;;;;;31.73;3.40;;;;;;;;;;5042901;28;20174;-66
2022/02/26 02:51:23;;;;;;;22.93;2.63;;;;;;;;;;5045315;28;20203;-66
2022/02/26 02:53:49;;;;;;;22.33;2.80;;;;;;;;;;5041678;28;20196;-66
2022/02/26 02:56:14;;;;;;;37.87;3.10;;;;;;;;;;5045404;28;20192;-66
2022/02/26 02:58:39;;;;;;;23.40;3.97;;;;;;;;;;5041953;28;20212;-66
2022/02/26 03:01:05;;;;;;;24.07;3.27;;;;;;;;;;5044968;28;20185;-66
2022/02/26 03:03:31;;;;;;;23.03;2.83;;;;;;;;;;5048320;28;20840;-66
2022/02/26 03:05:56;;;;;;;17.50;3.00;;;;;;;;;;5047935;28;20180;-66
2022/02/26 03:08:24;;;;;;;24.40;3.07;;;;;;;;;;5048304;28;20314;-66
2022/02/26 03:10:53;;;;;;;26.70;3.00;;;;;;;;;;5048347;28;20180;-66
2022/02/26 03:13:20;;;;;;;15.33;2.67;;;;;;;;;;5048627;28;20207;-66
2022/02/26 03:15:46;;;;;;;13.60;2.57;;;;;;;;;;5049843;28;20308;-66
2022/02/26 03:18:11;;;;;;;18.80;2.83;;;;;;;;;;5039165;28;20320;-66
2022/02/26 03:20:36;;;;;;;19.47;2.90;;;;;;;;;;5049270;28;20255;-66
2022/02/26 03:23:02;;;;;;;23.30;3.40;;;;;;;;;;5039474;28;20198;-66
2022/02/26 03:25:27;;;;;;;24.07;3.53;;;;;;;;;;5045865;28;20197;-66
2022/02/26 03:27:53;;;;;;;20.03;3.67;;;;;;;;;;5045950;28;20204;-67
2022/02/26 03:30:18;;;;;;;22.43;2.90;;;;;;;;;;5045696;28;20212;-66
2022/02/26 03:32:44;;;;;;;19.43;3.17;;;;;;;;;;5047427;28;20186;-66
2022/02/26 03:35:09;;;;;;;21.77;2.87;;;;;;;;;;5044744;28;20249;-66
2022/02/26 03:37:35;;;;;;;21.53;2.83;;;;;;;;;;5046368;28;20225;-66
2022/02/26 03:40:03;;;;;;;18.57;2.20;;;;;;;;;;5047223;28;20243;-67
2022/02/26 03:42:28;;;;;;;10.33;2.93;;;;;;;;;;5050136;28;20213;-67
2022/02/26 03:44:53;;;;;;;16.97;2.87;;;;;;;;;;5043645;28;20216;-66
2022/02/26 03:47:19;;;;;;;25.47;3.53;;;;;;;;;;5044666;28;20271;-66
2022/02/26 03:49:46;;;;;;;12.43;2.63;;;;;;;;;;5044484;28;20193;-66
2022/02/26 03:52:11;;;;;;;21.60;3.13;;;;;;;;;;5041215;28;20192;-66
2022/02/26 03:54:37;;;;;;;24.50;3.23;;;;;;;;;;5046143;28;20288;-66
2022/02/26 03:57:02;;;;;;;15.43;3.10;;;;;;;;;;5045504;28;20191;-67
2022/02/26 03:59:28;;;;;;;26.33;3.60;;;;;;;;;;5044855;28;20204;-66
2022/02/26 04:01:53;;;;;;;17.03;3.43;;;;;;;;;;5050525;28;20645;-66
2022/02/26 04:04:19;;;;;;;22.67;4.33;;;;;;;;;;5044824;28;20228;-66
2022/02/26 04:06:45;;;;;;;26.17;4.47;;;;;;;;;;5046182;28;20254;-66
2022/02/26 04:09:11;;;;;;;22.83;3.57;;;;;;;;;;5043806;28;20185;-66
2022/02/26 04:11:37;;;;;;;24.00;3.70;;;;;;;;;;5048808;28;20204;-66
2022/02/26 04:14:02;;;;;;;23.13;3.80;;;;;;;;;;5042157;28;20268;-66
2022/02/26 04:16:28;;;;;;;18.50;3.27;;;;;;;;;;5047011;28;20217;-66
2022/02/26 04:18:53;;;;;;;18.47;3.53;;;;;;;;;;5042416;28;20186;-66
2022/02/26 04:21:18;;;;;;;17.70;3.70;;;;;;;;;;5048469;28;20189;-67
2022/02/26 04:23:44;;;;;;;22.30;3.47;;;;;;;;;;5043624;28;20221;-66
2022/02/26 04:26:09;;;;;;;19.87;3.67;;;;;;;;;;5041904;28;20188;-66
2022/02/26 04:28:34;;;;;;;18.20;3.00;;;;;;;;;;5040600;28;20270;-69
2022/02/26 04:31:00;;;;;;;19.77;3.30;;;;;;;;;;5049058;28;20213;-66
2022/02/26 04:33:27;;;;;;;15.40;3.00;;;;;;;;;;5041632;28;20660;-66
2022/02/26 04:35:53;;;;;;;18.30;2.83;;;;;;;;;;5046092;28;20193;-66
2022/02/26 04:38:18;;;;;;;24.60;3.10;;;;;;;;;;5046224;28;20239;-66
2022/02/26 04:40:43;;;;;;;14.03;2.63;;;;;;;;;;5049566;28;20190;-66
2022/02/26 04:43:09;;;;;;;15.63;2.73;;;;;;;;;;5045717;28;20186;-67
2022/02/26 04:45:34;;;;;;;20.87;2.70;;;;;;;;;;5047993;28;20239;-67
2022/02/26 04:48:00;;;;;;;22.17;2.93;;;;;;;;;;5044329;28;20575;-67
2022/02/26 04:50:26;;;;;;;26.30;3.03;;;;;;;;;;5041988;28;20185;-67
2022/02/26 04:52:51;;;;;;;30.23;3.20;;;;;;;;;;5038357;28;20648;-66
2022/02/26 04:55:17;;;;;;;18.37;2.90;;;;;;;;;;5047074;28;20197;-67
2022/02/26 04:57:42;;;;;;;20.50;2.37;;;;;;;;;;5044158;28;20604;-66
2022/02/26 05:00:09;;;;;;;21.77;2.93;;;;;;;;;;5042048;28;20197;-66
2022/02/26 05:02:35;;;;;;;31.83;3.37;;;;;;;;;;5037652;28;20189;-66
2022/02/26 05:05:00;;;;;;;21.53;3.23;;;;;;;;;;5046447;28;20177;-66
2022/02/26 05:07:26;;;;;;;33.83;3.77;;;;;;;;;;5048371;28;20268;-66
2022/02/26 05:09:51;;;;;;;21.27;3.47;;;;;;;;;;5040192;28;20272;-66
2022/02/26 05:12:17;;;;;;;20.97;4.17;;;;;;;;;;5040986;28;20216;-67
2022/02/26 05:14:42;;;;;;;25.87;3.20;;;;;;;;;;5040940;28;20250;-68
2022/02/26 05:17:08;;;;;;;25.00;3.60;;;;;;;;;;5044637;28;20279;-67
2022/02/26 05:19:33;;;;;;;19.23;3.70;;;;;;;;;;5044946;28;20185;-67
2022/02/26 05:21:59;;;;;;;21.70;3.50;;;;;;;;;;5044139;28;20277;-68
2022/02/26 05:24:24;;;;;;;20.00;4.53;;;;;;;;;;5042425;28;20184;-68
2022/02/26 05:26:50;;;;;;;19.03;4.20;;;;;;;;;;5048140;28;20200;-67
2022/02/26 05:29:15;;;;;;;24.10;3.93;;;;;;;;;;5041012;28;20582;-67
2022/02/26 05:31:40;;;;;;;22.70;2.97;;;;;;;;;;5045258;28;20209;-67
2022/02/26 05:34:06;;;;;;;20.63;3.80;;;;;;;;;;5042459;28;20181;-69
2022/02/26 05:36:31;;;;;;;27.13;4.40;;;;;;;;;;5059604;28;20534;-68
2022/02/26 05:38:56;;;;;;;18.77;4.17;;;;;;;;;;5042035;28;20189;-67
2022/02/26 05:41:22;;;;;;;24.73;4.97;;;;;;;;;;5038530;28;20185;-67
2022/02/26 05:43:47;;;;;;;19.57;4.17;;;;;;;;;;5042626;28;20217;-67
2022/02/26 05:46:13;;;;;;;32.53;5.67;;;;;;;;;;5045933;28;20177;-69
2022/02/26 05:48:38;;;;;;;28.53;4.90;;;;;;;;;;5043409;28;20188;-68
2022/02/26 05:51:04;;;;;;;30.70;4.77;;;;;;;;;;5042441;28;20264;-67
2022/02/26 05:53:29;;;;;;;31.30;5.00;;;;;;;;;;5040478;28;20178;-67
2022/02/26 05:55:56;;;;;;;33.67;4.97;;;;;;;;;;5043633;28;20247;-68
2022/02/26 05:58:21;;;;;;;20.90;4.50;;;;;;;;;;5043154;28;20185;-67
2022/02/26 06:00:48;;;;;;;23.67;4.67;;;;;;;;;;5042548;28;20209;-67
2022/02/26 06:03:14;;;;;;;27.73;5.50;;;;;;;;;;5041706;28;20518;-67
2022/02/26 06:05:39;;;;;;;23.73;4.90;;;;;;;;;;5043321;28;20184;-67
2022/02/26 06:08:05;;;;;;;29.07;5.43;;;;;;;;;;5043171;28;20485;-67
2022/02/26 06:10:30;;;;;;;55.10;6.90;;;;;;;;;;5042735;28;20562;-67
2022/02/26 06:12:57;;;;;;;36.00;5.97;;;;;;;;;;5040033;28;20280;-67
2022/02/26 06:15:23;;;;;;;29.27;6.53;;;;;;;;;;5048541;28;20221;-67
2022/02/26 06:17:48;;;;;;;48.60;6.17;;;;;;;;;;5044818;28;20541;-67
2022/02/26 06:20:14;;;;;;;64.93;6.77;;;;;;;;;;5052855;28;20235;-67
2022/02/26 06:22:39;;;;;;;21.47;5.40;;;;;;;;;;5046513;28;20272;-67
2022/02/26 06:25:05;;;;;;;40.67;5.80;;;;;;;;;;5043052;28;20190;-67
2022/02/26 06:27:35;;;;;;;57.00;7.60;;;;;;;;;;5040319;28;20193;-67
2022/02/26 06:30:00;;;;;;;35.63;6.80;;;;;;;;;;5040642;28;20658;-67
2022/02/26 06:32:26;;;;;;;44.77;6.63;;;;;;;;;;5043197;28;20422;-67
2022/02/26 06:34:51;;;;;;;31.30;7.37;;;;;;;;;;5042694;28;20216;-67
2022/02/26 06:37:16;;;;;;;34.10;7.07;;;;;;;;;;5040770;28;20527;-67
2022/02/26 06:39:42;;;;;;;31.90;6.73;;;;;;;;;;5042857;28;20174;-67
2022/02/26 06:42:07;;;;;;;35.27;7.00;;;;;;;;;;5041627;28;20276;-67
2022/02/26 06:44:32;;;;;;;32.13;5.53;;;;;;;;;;5044439;28;20227;-67
2022/02/26 06:46:58;;;;;;;42.80;7.60;;;;;;;;;;5040417;28;20270;-67
2022/02/26 06:49:23;;;;;;;31.63;6.90;;;;;;;;;;5043389;28;20261;-66
2022/02/26 06:51:48;;;;;;;30.43;6.57;;;;;;;;;;5045615;28;20212;-66
2022/02/26 06:54:14;;;;;;;19.60;6.10;;;;;;;;;;5045461;28;20227;-68
2022/02/26 06:56:39;;;;;;;28.10;7.03;;;;;;;;;;5045138;28;20185;-66
2022/02/26 06:59:04;;;;;;;27.03;6.43;;;;;;;;;;5042789;28;20193;-67
2022/02/26 07:01:30;;;;;;;38.67;7.70;;;;;;;;;;5048193;28;20713;-67
2022/02/26 07:03:55;;;;;;;42.17;7.60;;;;;;;;;;5045375;28;20279;-67
2022/02/26 07:06:21;;;;;;;27.73;6.97;;;;;;;;;;5048756;28;20535;-67
2022/02/26 07:08:46;;;;;;;25.23;6.37;;;;;;;;;;5045880;28;20509;-67
2022/02/26 07:11:12;;;;;;;21.63;6.10;;;;;;;;;;5052250;28;20189;-67
2022/02/26 07:13:37;;;;;;;27.00;6.50;;;;;;;;;;5040562;28;20209;-67
2022/02/26 07:16:03;;;;;;;24.20;7.00;;;;;;;;;;5043114;28;20287;-67
2022/02/26 07:18:28;;;;;;;32.50;7.33;;;;;;;;;;5041308;28;20306;-67
2022/02/26 07:20:53;;;;;;;40.27;8.50;;;;;;;;;;5048243;28;20192;-67
2022/02/26 07:23:19;;;;;;;27.23;7.73;;;;;;;;;;5045074;28;20204;-67
2022/02/26 07:25:45;;;;;;;17.43;7.47;;;;;;;;;;5051660;28;20264;-67
2022/02/26 07:28:12;;;;;;;19.47;7.30;;;;;;;;;;5041167;28;20656;-66
2022/02/26 07:30:38;;;;;;;37.23;8.37;;;;;;;;;;5041078;28;20228;-66
2022/02/26 07:33:04;;;;;;;28.17;8.50;;;;;;;;;;5043797;28;20573;-67
2022/02/26 07:35:29;;;;;;;34.27;8.63;;;;;;;;;;5048588;28;20236;-66
2022/02/26 07:37:54;;;;;;;50.13;9.67;;;;;;;;;;5040131;28;20243;-67
2022/02/26 07:40:20;;;;;;;30.57;8.40;;;;;;;;;;5049046;28;20224;-67
2022/02/26 07:42:46;;;;;;;45.00;9.50;;;;;;;;;;5044111;28;20186;-67
2022/02/26 07:45:12;;;;;;;23.03;9.30;;;;;;;;;;5044654;28;20205;-67
2022/02/26 07:47:37;;;;;;;38.10;7.67;;;;;;;;;;5044381;28;20219;-67
2022/02/26 07:50:03;;;;;;;35.07;9.63;;;;;;;;;;5043768;28;20182;-67
2022/02/26 07:52:31;;;;;;;45.07;10.63;;;;;;;;;;5054072;28;20187;-67
2022/02/26 07:54:57;;;;;;;38.80;10.43;;;;;;;;;;5043816;28;20253;-67
2022/02/26 07:57:23;;;;;;;34.97;9.50;;;;;;;;;;5047658;28;20272;-67
2022/02/26 07:59:48;;;;;;;27.57;9.63;;;;;;;;;;5045871;28;20281;-67
2022/02/26 08:02:13;;;;;;;22.13;9.03;;;;;;;;;;5046580;28;20205;-67
2022/02/26 08:04:39;;;;;;;38.23;9.73;;;;;;;;;;5044984;28;20186;-67
2022/02/26 08:07:05;;;;;;;36.37;10.40;;;;;;;;;;5045193;28;20651;-67
2022/02/26 08:09:30;;;;;;;31.77;10.40;;;;;;;;;;5045809;28;20424;-67
2022/02/26 08:11:57;;;;;;;35.77;10.10;;;;;;;;;;5051030;28;20209;-66
2022/02/26 08:14:23;;;;;;;39.07;10.83;;;;;;;;;;5044624;28;20233;-67
2022/02/26 08:16:48;;;;;;;30.33;10.53;;;;;;;;;;5046573;28;20249;-67
2022/02/26 08:19:14;;;;;;;21.27;9.07;;;;;;;;;;5043043;28;20248;-67
2022/02/26 08:21:40;;;;;;;17.57;8.87;;;;;;;;;;5052670;28;20319;-67
2022/02/26 08:24:06;;;;;;;33.27;10.33;;;;;;;;;;5043981;28;20401;-67
2022/02/26 08:26:32;;;;;;;22.90;10.13;;;;;;;;;;5045507;28;20196;-67
2022/02/26 08:28:58;;;;;;;25.57;9.93;;;;;;;;;;5056738;28;20278;-67
2022/02/26 08:31:23;;;;;;;27.50;9.67;;;;;;;;;;5044563;28;20252;-66
2022/02/26 08:33:49;;;;;;;48.33;10.00;;;;;;;;;;5047184;28;20208;-67
2022/02/26 08:36:15;;;;;;;54.67;9.50;;;;;;;;;;5048002;28;20282;-67
2022/02/26 08:38:40;;;;;;;20.40;10.23;;;;;;;;;;5052014;28;20189;-67
2022/02/26 08:41:06;;;;;;;25.13;11.07;;;;;;;;;;5044764;28;20188;-66
2022/02/26 08:43:31;;;;;;;76.33;11.80;;;;;;;;;;5062240;28;20196;-67
2022/02/26 08:45:56;;;;;;;29.20;10.80;;;;;;;;;;5047281;28;20178;-67
2022/02/26 08:48:22;;;;;;;29.43;10.40;;;;;;;;;;5045647;28;20216;-67
2022/02/26 08:50:47;;;;;;;45.37;10.03;;;;;;;;;;5052855;28;20288;-67
2022/02/26 08:53:12;;;;;;;22.80;9.13;;;;;;;;;;5048652;28;20193;-67
2022/02/26 08:55:38;;;;;;;21.97;10.23;;;;;;;;;;5043781;28;20276;-67
2022/02/26 08:58:03;;;;;;;16.13;9.47;;;;;;;;;;5051802;28;20253;-67
2022/02/26 09:00:29;;;;;;;21.03;10.30;;;;;;;;;;5044062;28;20268;-67
2022/02/26 09:02:55;;;;;;;14.17;9.00;;;;;;;;;;5049785;28;20690;-67
2022/02/26 09:05:21;;;;;;;19.40;9.33;;;;;;;;;;5043422;28;20234;-68
2022/02/26 09:07:46;;;;;;;31.33;8.73;;;;;;;;;;5045298;28;20698;-67
2022/02/26 09:10:12;;;;;;;19.27;8.57;;;;;;;;;;5044987;28;20194;-68
2022/02/26 09:12:38;;;;;;;36.47;8.73;;;;;;;;;;5045261;28;20231;-67
2022/02/26 09:15:04;;;;;;;21.23;7.73;;;;;;;;;;5045705;28;20260;-67
2022/02/26 09:17:29;;;;;;;33.67;8.90;;;;;;;;;;5046020;28;20292;-67
2022/02/26 09:19:55;;;;;;;29.33;7.87;;;;;;;;;;5035510;28;20197;-68
2022/02/26 09:22:20;;;;;;;19.40;7.90;;;;;;;;;;5042377;28;20193;-67
2022/02/26 09:24:45;;;;;;;20.00;8.23;;;;;;;;;;5046579;28;20174;-67
2022/02/26 09:27:11;;;;;;;17.93;7.53;;;;;;;;;;5042755;28;20193;-67
2022/02/26 09:29:36;;;;;;;15.43;7.67;;;;;;;;;;5052300;28;20181;-67
2022/02/26 09:32:02;;;;;;;10.13;6.87;;;;;;;;;;5045413;28;20240;-67
2022/02/26 09:34:29;;;;;;;12.03;6.30;;;;;;;;;;5045270;28;20235;-67
2022/02/26 09:36:54;;;;;;;11.77;6.93;;;;;;;;;;5041481;28;20197;-67
2022/02/26 09:39:20;;;;;;;13.50;6.77;;;;;;;;;;5055867;28;20185;-67
2022/02/26 09:41:50;;;;;;;13.93;7.30;;;;;;;;;;5041553;28;20197;-67
2022/02/26 09:44:15;;;;;;;14.93;7.57;;;;;;;;;;5047244;28;20547;-68
2022/02/26 09:46:41;;;;;;;10.73;7.60;;;;;;;;;;5042405;28;20185;-69
2022/02/26 09:49:07;;;;;;;11.93;7.13;;;;;;;;;;5036879;28;20231;-68
2022/02/26 09:51:34;;;;;;;12.73;6.83;;;;;;;;;;5042748;28;20664;-68
2022/02/26 09:54:00;;;;;;;10.10;6.17;;;;;;;;;;5057021;28;20177;-67
2022/02/26 09:56:25;;;;;;;20.83;7.80;;;;;;;;;;5044027;28;20224;-66
2022/02/26 09:58:51;;;;;;;10.57;6.07;;;;;;;;;;5043099;28;20212;-66
2022/02/26 10:01:17;;;;;;;14.97;6.90;;;;;;;;;;5042523;28;20285;-67
2022/02/26 10:03:43;;;;;;;15.20;7.10;;;;;;;;;;5046446;28;20645;-67
2022/02/26 10:06:17;;;;;;;13.73;6.50;;;;;;;;;;5043581;28;20671;-67
2022/02/26 10:08:49;;;;;;;9.77;6.73;;;;;;;;;;5050885;28;20203;-67
2022/02/26 10:11:28;;;;;;;13.77;6.43;;;;;;;;;;5046717;28;20189;-68
2022/02/26 10:14:15;;;;;;;14.57;7.13;;;;;;;;;;5046101;28;20586;-68
2022/02/26 10:16:56;;;;;;;18.47;8.27;;;;;;;;;;5045949;28;20288;-68
2022/02/26 10:19:28;;;;;;;17.67;7.87;;;;;;;;;;5044142;28;20633;-68
2022/02/26 10:21:59;;;;;;;19.43;8.00;;;;;;;;;;5046418;28;20196;-68
2022/02/26 10:24:26;;;;;;;19.63;8.37;;;;;;;;;;5043147;28;20216;-68
2022/02/26 10:26:54;;;;;;;16.00;8.03;;;;;;;;;;5049212;28;20228;-67
2022/02/26 10:29:24;;;;;;;20.00;8.00;;;;;;;;;;5037499;28;20186;-67
2022/02/26 10:31:55;;;;;;;16.60;7.73;;;;;;;;;;5037438;28;20664;-67
2022/02/26 10:34:42;;;;;;;17.13;7.07;;;;;;;;;;5037132;28;20683;-67
2022/02/26 10:37:10;;;;;;;20.70;7.30;;;;;;;;;;5030132;28;20216;-67
2022/02/26 10:39:39;;;;;;;20.10;7.13;;;;;;;;;;5040444;28;20184;-68
2022/02/26 10:42:08;;;;;;;15.30;6.17;;;;;;;;;;5037136;28;20192;-66
2022/02/26 10:44:34;;;;;;;18.83;6.00;;;;;;;;;;5042633;28;20239;-67
2022/02/26 10:47:11;;;;;;;17.10;6.13;;;;;;;;;;5045047;28;20729;-66
2022/02/26 10:49:47;;;;;;;17.60;5.60;;;;;;;;;;5044867;28;20680;-66
2022/02/26 10:52:16;;;;;;;16.13;5.60;;;;;;;;;;5042579;28;20209;-66
2022/02/26 10:54:43;;;;;;;15.50;5.60;;;;;;;;;;5043417;28;20725;-67
2022/02/26 10:57:11;;;;;;;15.63;5.03;;;;;;;;;;5039118;28;20247;-67
2022/02/26 10:59:42;;;;;;;16.33;6.13;;;;;;;;;;5039952;28;20185;-67
2022/02/26 11:02:21;;;;;;;18.70;6.37;;;;;;;;;;5041656;28;20235;-68
2022/02/26 11:04:47;;;;;;;24.43;6.87;;;;;;;;;;5051947;28;20189;-67
2022/02/26 11:07:13;;;;;;;18.70;7.03;;;;;;;;;;5042966;28;20185;-68
2022/02/26 11:09:41;;;;;;;26.73;7.53;;;;;;;;;;5053137;28;20235;-68
2022/02/26 11:12:11;;;;;;;32.20;7.97;;;;;;;;;;5042598;28;20779;-66
2022/02/26 11:14:37;;;;;;;35.10;10.13;;;;;;;;;;5047221;28;20595;-67
2022/02/26 11:17:04;;;;;;;35.47;13.23;;;;;;;;;;5046940;28;20201;-67
2022/02/26 11:19:31;;;;;;;36.57;12.40;;;;;;;;;;5053434;28;20272;-67
2022/02/26 11:21:59;;;;;;;44.83;19.13;;;;;;;;;;5042509;28;20604;-68
2022/02/26 11:24:25;;;;;;;48.13;18.37;;;;;;;;;;5045904;28;20193;-67
2022/02/26 11:26:51;;;;;;;28.17;11.47;;;;;;;;;;5045603;28;20251;-66
2022/02/26 11:29:19;;;;;;;28.07;8.43;;;;;;;;;;5054152;28;20605;-67
2022/02/26 11:32:07;;;;;;;17.23;5.50;;;;;;;;;;5050592;28;20690;-67
2022/02/26 11:34:34;;;;;;;15.23;4.57;;;;;;;;;;5047564;28;20209;-67
2022/02/26 11:37:06;;;;;;;7.83;1.60;;;;;;;;;;5046169;28;20656;-67
2022/02/26 11:39:35;;;;;;;14.83;2.27;;;;;;;;;;5048156;28;20209;-68
2022/02/26 11:42:13;;;;;;;8.83;2.27;;;;;;;;;;5050717;28;20548;-67
2022/02/26 11:45:01;;;;;;;20.23;2.40;;;;;;;;;;5049311;28;20575;-67
2022/02/26 11:47:36;;;;;;;18.03;2.20;;;;;;;;;;5051493;28;20185;-66
2022/02/26 11:50:04;;;;;;;11.00;2.23;;;;;;;;;;5045832;28;20232;-66
2022/02/26 11:52:39;;;;;;;18.00;2.30;;;;;;;;;;5047535;28;20349;-66
2022/02/26 11:55:39;;;;;;;14.33;2.77;;;;;;;;;;5048350;28;20571;-66
2022/02/26 11:58:10;;;;;;;14.37;1.90;;;;;;;;;;5050908;28;20246;-66
2022/02/26 12:00:42;;;;;;;12.60;2.60;;;;;;;;;;5053936;28;20619;-67
2022/02/26 12:03:26;;;;;;;10.20;2.20;;;;;;;;;;5047828;28;20193;-67
2022/02/26 12:06:19;;;;;;;15.73;2.20;;;;;;;;;;5049094;28;20659;-66
2022/02/26 12:08:53;;;;;;;17.43;1.90;;;;;;;;;;5048093;28;20253;-66
2022/02/26 12:11:21;;;;;;;13.00;1.73;;;;;;;;;;5057304;28;20196;-67
2022/02/26 12:13:48;;;;;;;12.70;2.40;;;;;;;;;;5042689;28;20556;-67
2022/02/26 12:16:20;;;;;;;13.83;2.10;;;;;;;;;;5054878;28;20694;-67
2022/02/26 12:19:04;;;;;;;18.58;2.67;;;;;;;;;;5042818;28;20292;-67
2022/02/26 12:21:34;;;;;;;14.32;2.55;;;;;;;;;;5038802;28;20189;-67
2022/02/26 12:24:03;;;;;;;15.18;2.40;;;;;;;;;;5043826;28;20189;-67
2022/02/26 12:27:03;;;;;;;10.93;2.13;;;;;;;;;;5043602;28;20186;-66
2022/02/26 12:29:52;;;;;;;11.67;1.83;;;;;;;;;;5046510;28;20189;-67
2022/02/26 12:32:22;;;;;;;17.47;2.00;;;;;;;;;;5043241;28;20682;-66
2022/02/26 12:34:59;;;;;;;7.10;2.10;;;;;;;;;;5054507;28;20637;-67
2022/02/26 12:37:27;;;;;;;13.10;2.03;;;;;;;;;;5044619;28;20193;-67
2022/02/26 12:39:57;;;;;;;16.30;2.40;;;;;;;;;;5055578;28;20200;-66
2022/02/26 12:42:35;;;;;;;13.03;2.30;;;;;;;;;;5050041;28;20288;-68
2022/02/26 12:45:04;;;;;;;11.57;2.03;;;;;;;;;;5042270;28;20280;-67
2022/02/26 12:47:31;;;;;;;10.00;1.83;;;;;;;;;;5044196;28;20676;-67
2022/02/26 12:49:58;;;;;;;11.97;2.43;;;;;;;;;;5057398;28;20259;-67
2022/02/26 12:52:27;;;;;;;14.70;2.53;;;;;;;;;;5049679;28;20198;-66
2022/02/26 12:54:52;;;;;;;18.93;2.47;;;;;;;;;;5054911;28;20480;-66
2022/02/26 12:57:18;;;;;;;16.53;2.63;;;;;;;;;;5056421;28;20222;-67
2022/02/26 12:59:43;;;;;;;14.57;2.13;;;;;;;;;;5051273;28;20247;-66
2022/02/26 13:02:09;;;;;;;17.70;2.30;;;;;;;;;;5054665;28;20268;-67
2022/02/26 13:04:37;;;;;;;16.00;2.50;;;;;;;;;;5047151;28;20208;-67
2022/02/26 13:07:13;;;;;;;14.73;2.07;;;;;;;;;;5059003;28;20211;-67
2022/02/26 13:09:53;;;;;;;13.40;2.67;;;;;;;;;;5047823;28;20188;-67
2022/02/26 13:12:22;;;;;;;14.20;2.50;;;;;;;;;;5059525;28;20546;-67
2022/02/26 13:14:58;;;;;;;10.10;2.20;;;;;;;;;;5047739;28;20240;-67
2022/02/26 13:17:25;;;;;;;11.10;2.73;;;;;;;;;;5048901;28;20193;-67
2022/02/26 13:19:51;;;;;;;17.47;2.50;;;;;;;;;;5050069;28;20284;-66
2022/02/26 13:22:16;;;;;;;13.00;2.70;;;;;;;;;;5055600;28;20534;-67
2022/02/26 13:24:42;;;;;;;10.37;2.70;;;;;;;;;;5053013;28;20203;-67
2022/02/26 13:27:14;;;;;;;10.17;2.13;;;;;;;;;;5053557;28;20177;-67
2022/02/26 13:29:47;;;;;;;10.63;2.33;;;;;;;;;;5052947;28;20218;-67
2022/02/26 13:32:18;;;;;;;11.33;2.23;;;;;;;;;;5050338;28;20271;-67
2022/02/26 13:34:55;;;;;;;9.77;2.40;;;;;;;;;;5055176;28;20576;-67
2022/02/26 13:37:23;;;;;;;15.90;2.43;;;;;;;;;;5049854;28;20195;-67
2022/02/26 13:39:50;;;;;;;16.03;2.67;;;;;;;;;;5056481;28;20169;-67
2022/02/26 13:42:27;;;;;;;10.83;2.40;;;;;;;;;;5042838;28;20200;-67
2022/02/26 13:45:00;;;;;;;13.50;2.80;;;;;;;;;;5045787;28;20180;-67
2022/02/26 13:47:27;;;;;;;15.10;2.43;;;;;;;;;;5042086;28;20204;-67
2022/02/26 13:49:55;;;;;;;14.53;2.80;;;;;;;;;;5042426;28;20233;-67
2022/02/26 13:52:22;;;;;;;18.57;4.50;;;;;;;;;;5042991;28;20273;-67
2022/02/26 13:54:50;;;;;;;18.63;5.97;;;;;;;;;;5055533;28;20204;-67
2022/02/26 13:57:18;;;;;;;14.17;3.20;;;;;;;;;;5040515;28;20204;-66
2022/02/26 13:59:45;;;;;;;12.90;2.47;;;;;;;;;;5062265;28;20279;-66
2022/02/26 14:02:21;;;;;;;14.67;2.90;;;;;;;;;;5040835;28;20576;-66
2022/02/26 14:04:46;;;;;;;13.67;2.37;;;;;;;;;;5047026;28;20242;-66
2022/02/26 14:07:12;;;;;;;7.60;2.07;;;;;;;;;;5047377;28;20568;-66
2022/02/26 14:09:43;;;;;;;15.20;2.30;;;;;;;;;;5051079;28;20710;-66
2022/02/26 14:12:10;;;;;;;16.67;3.70;;;;;;;;;;5039537;28;20189;-66
2022/02/26 14:14:37;;;;;;;13.50;2.47;;;;;;;;;;5045094;28;20237;-66
2022/02/26 14:17:06;;;;;;;10.20;2.40;;;;;;;;;;5042886;28;20259;-67
2022/02/26 14:19:37;;;;;;;16.30;2.17;;;;;;;;;;5039670;28;20684;-67
2022/02/26 14:22:08;;;;;;;13.03;3.47;;;;;;;;;;5049697;28;20636;-67
2022/02/26 14:24:38;;;;;;;10.73;2.80;;;;;;;;;;5042615;28;20204;-67
2022/02/26 14:27:04;;;;;;;12.97;2.13;;;;;;;;;;5042078;28;20177;-67
2022/02/26 14:29:32;;;;;;;15.80;2.90;;;;;;;;;;5039693;28;20246;-67